ED1ZAD-3
43.07.90N 005.38.52W
IN73ED aprs.fi
zuletzt gehoert:
2021-06-12T10:59:11Z
zuerst gehoert:
2020-02-10T14:53:15Z

APRS Aller [IN73ED], 0 Stunde(n), ED1ZAD-3 [13:03:12, 0s].
ED1ZAD 43.07.90N 005.38.52WIN73ED 0.746km 337°NNW10:59:11ZED1ZAD-3 APRS Digi/Igate(3ED1ZAD-3)
EA1HWA 43.12.00N 005.47.40WIN73CE 14.804km 304°NW10:33:55ZMMDVM MMDVM HS Hat 433.4500/433.4500 CC1
EA1JBL 43.12.28N 005.47.42WIN73CE 15.144km 306°NW10:34:08ZMMDVM DVMega 435.3000/435.3000 CC1
EA1RCG 43.09.45N 005.49.78WIN73CD 15.921km 283°WNW10:34:12ZGRUPO RADIO GALENA (GRG) 433.4500/433.4500 CC1
EA1IMW 43.14.36N 005.46.93WIN73CF 17.184km 317°NW10:34:18ZGRUPO RADIO GALENA (GRG) 433.4500/433.4500 CC1
EA1FLQ 43.22.00N 005.36.35WIN73EI 26.923km N11:01:04ZMMDVM DVMega 439.9750/439.9750 CC5
EA1L 43.20.38N 005.51.13WIN73BI 29.442km 324°NW10:54:34ZWind 019°/007kn, Böen bis 012kn, Temp 22.78c, Regen 0.0mm, letzte 24h 0.0mm, seit 0h 0.0mm, Baro 1020.8h, Hum: 80%(3EA1L-13)
ea1l@ure.es V=11.8V,T=??.?C(2EA1L)
EA1JBE 43.20.87N 005.51.21WIN73BI 30.220km 325°NW11:02:49Z145.750MHz P. Máx.: 10W / QRV R6(3EA1JBE-9)
33D00 43.21.63N 005.51.13WIN73BI 31.321km 327°NNW11:01:52Z33-D-00 Protección Civil REMER / Delegación del Gobierno en Asturias
LEHU 43.22.63N 005.49.57WIN73CJ 31.829km 332°NNW11:00:06ZHelipuerto del HUCA: LEAS 121030Z 08008KT 050V120 9999 FEW014 BKN019 19/16 Q1023 NOSIG=
EA1YR 43.22.09N 005.51.86WIN73BI 32.600km 326°NW10:34:26ZMMDVM DVS 434.3500/434.3500 CC1
ED1ZAU 43.23.04N 005.52.75WIN73BJ 34.714km 326°NW10:35:20ZRD625 438.5000/430.9000 CC1
EA1IN 43.25.16N 005.47.43WIN73CK 34.894km 339°NNW10:34:33ZMMDVM MMDVM HS Hat 434.7000/434.7000 CC1
ED1ZAS 43.27.52N 005.40.17WIN73DL 37.126km 356°N10:35:14ZRD985 438.2250/430.6250 CC1
LEMR 43.25.83N 005.49.60WIN73CK 37.160km 336°NNW11:00:11ZAerodromo de la Morgal: LEAS 121030Z 08008KT 050V120 9999 FEW014 BKN019 19/16 Q1023 NOSIG=
LEGM 43.26.15N 005.49.84WIN73CK 37.845km 336°NNW11:00:06ZHelipuerto de La Morgal: LEAS 121030Z 08008KT 050V120 9999 FEW014 BKN019 19/16 Q1023 NOSIG=
ED1ZAE 43.27.99N 005.40.54WIN73DL 38.013km 355°N11:02:47Z400 M. PICO SAN MARTIN (GIJON) 13.5V,23.1C(3ED1ZAE-3)
EA1HJA 43.28.10N 005.30.45WIN73FL 39.545km 16°NNE10:57:33Z]=(3EA1HJA-9)
IN73FL WX3IN1+ 2.0 - V=13.9V,TX TEMP=45.0C(2EA1HJA)
EA1HJA@URE.ES(2EA1HJA-2)
EB1GEM 43.30.00N 005.36.07WIN73EM 41.746km N10:57:41ZWX3in1Plus2.0 U=13.3V,T=??.?C/??.?F(3EB1GEM-3)
EA1FHR 43.28.72N 005.26.41WIN73GL 42.395km 22°NNE10:32:19ZMMDVM MMDVM HS Hat 439.1500/439.1500 CC1
EA1HWD 43.28.96N 005.26.30WIN73GL 42.868km 22°NNE10:33:40Z144.575FM Local frecuency VHF. 434.2500/434.2500 CC1
EA1JAY 43.29.33N 005.26.78WIN73GL 43.284km 21°NNE11:00:13Z434.525MHz Nodo TETRA DMO(3EA1JAY-4)
EA1JAY(2EA1JAY-2)
EA1DZR 43.31.47N 005.40.00WIN73DM 44.400km 357°N10:34:50ZMMDVM DVS 434.3500/434.3500 CC1
EA1IEJ 43.31.81N 005.40.64WIN73DM 45.099km 356°N10:32:24ZMMDVM MMDVM HS Hat 438.8500/438.8500 CC6
EA1JBF 42.43.82N 005.47.43WIN72CR 45.646km 196°SSW11:03:08ZMMDVM MMDVM HS Dual Hat 438.3000/430.7000 CC1
EB1TK 43.32.22N 005.42.32WIN73DM 46.067km 353°N10:55:21ZWind 045°/011kn, Böen bis 017kn, Temp 18.33c, Regen 0.0mm, letzte 24h 0.0mm, seit 0h 0.0mm, Baro 1026.3h, Hum: 85%(3EB1TK-13)
ED1ZAW 42.51.22N 005.11.57WIN72JU 47.192km 130°SE11:01:30ZUnión de Radioaficionados de León URLE. DMR alta cobertura. 438.4000/430.8000 CC1
Unión de Radioaficionados de León URLE Volt.=13.7V,Temp.=18.4C 1605m.(2ED1ZAW-3)
LEEL 43.32.98N 005.41.71WIN73DN 47.362km 354°N11:00:11ZHelipuerto de El Musel: LEAS 121030Z 08008KT 050V120 9999 FEW014 BKN019 19/16 Q1023 NOSIG=
ED1ZAY 43.29.47N 005.56.54WIN73AL 47.513km 329°NNW10:35:18ZRD625 438.3000/430.7000 CC1
ED1ZBF 43.19.16N 005.06.74WIN73KH 47.755km 63°ENE10:35:14ZRD625 438.4750/430.8750 CC1

aprs.pl 5.0.011w DL3EL © 2006-2021 [453377]